createdAt,value
2018-06-05T00:00:47.016Z,19.30
2018-06-05T00:03:14.422Z,21.50
2018-06-05T00:05:41.894Z,22.60
2018-06-05T00:08:11.387Z,21.83
2018-06-05T00:10:38.779Z,19.70
2018-06-05T00:13:06.313Z,20.65
2018-06-05T00:15:33.739Z,22.17
2018-06-05T00:18:01.169Z,21.03
2018-06-05T00:20:28.643Z,20.40
2018-06-05T00:22:56.152Z,21.40
2018-06-05T00:25:24.339Z,21.10
2018-06-05T00:27:51.732Z,22.10
2018-06-05T00:30:19.139Z,21.37
2018-06-05T00:32:46.564Z,21.40
2018-06-05T00:35:14.000Z,21.13
2018-06-05T00:37:41.359Z,21.57
2018-06-05T00:40:08.752Z,20.88
2018-06-05T00:42:36.923Z,22.27
2018-06-05T00:45:04.891Z,21.20
2018-06-05T00:47:32.291Z,22.02
2018-06-05T00:49:59.678Z,20.93
2018-06-05T00:52:27.098Z,22.90
2018-06-05T00:54:55.084Z,22.42
2018-06-05T00:57:22.467Z,21.67
2018-06-05T00:59:49.839Z,23.37
2018-06-05T01:02:17.252Z,21.53
2018-06-05T01:04:45.250Z,22.00
2018-06-05T01:07:12.645Z,21.00
2018-06-05T01:09:40.035Z,21.30
2018-06-05T01:12:07.456Z,19.75
2018-06-05T01:14:34.892Z,22.37
2018-06-05T01:17:02.352Z,21.13
2018-06-05T01:19:29.720Z,21.83
2018-06-05T01:21:57.103Z,22.13
2018-06-05T01:24:24.606Z,21.67
2018-06-05T01:26:52.028Z,21.80
2018-06-05T01:29:19.423Z,20.90
2018-06-05T01:31:46.819Z,21.60
2018-06-05T01:34:14.242Z,21.13
2018-06-05T01:36:41.639Z,19.50
2018-06-05T01:39:09.389Z,23.57
2018-06-05T01:41:38.472Z,22.50
2018-06-05T01:44:05.853Z,20.27
2018-06-05T01:46:33.312Z,20.00
2018-06-05T01:49:00.780Z,23.83
2018-06-05T01:51:28.190Z,22.50
2018-06-05T01:53:55.593Z,22.57
2018-06-05T01:56:23.060Z,20.60
2018-06-05T01:58:50.457Z,21.68
2018-06-05T02:01:17.840Z,21.27
2018-06-05T02:03:45.304Z,22.80
2018-06-05T02:06:12.743Z,22.50
2018-06-05T02:08:40.300Z,22.90
2018-06-05T02:11:08.253Z,21.25
2018-06-05T02:13:35.648Z,21.17
2018-06-05T02:16:03.053Z,21.60
2018-06-05T02:18:30.447Z,22.22
2018-06-05T02:20:57.824Z,22.07
2018-06-05T02:23:25.232Z,22.00
2018-06-05T02:25:52.674Z,20.85
2018-06-05T02:28:20.074Z,20.80
2018-06-05T02:30:48.347Z,21.55
2018-06-05T02:33:15.728Z,20.90
2018-06-05T02:35:43.500Z,21.40
2018-06-05T02:38:10.932Z,21.90
2018-06-05T02:40:38.359Z,20.85
2018-06-05T02:43:05.730Z,23.27
2018-06-05T02:45:33.131Z,21.12
2018-06-05T02:48:00.572Z,20.83
2018-06-05T02:50:28.091Z,21.10
2018-06-05T02:52:55.522Z,21.48
2018-06-05T02:55:22.962Z,19.23
2018-06-05T02:57:50.431Z,20.00
2018-06-05T03:00:17.891Z,19.70
2018-06-05T03:02:45.295Z,20.50
2018-06-05T03:05:12.711Z,22.60
2018-06-05T03:07:40.158Z,19.80
2018-06-05T03:10:07.585Z,20.67
2018-06-05T03:12:34.977Z,20.70
2018-06-05T03:15:02.407Z,20.80
2018-06-05T03:17:29.815Z,18.98
2018-06-05T03:19:57.236Z,20.72
2018-06-05T03:22:24.659Z,21.35
2018-06-05T03:24:52.051Z,19.60
2018-06-05T03:27:19.533Z,20.68
2018-06-05T03:29:46.908Z,20.00
2018-06-05T03:32:14.309Z,21.50
2018-06-05T03:34:41.705Z,19.70
2018-06-05T03:37:09.118Z,21.00
2018-06-05T03:39:36.510Z,18.47
2018-06-05T03:42:03.962Z,20.10
2018-06-05T03:44:31.380Z,19.90
2018-06-05T03:46:58.773Z,18.70
2018-06-05T03:49:26.191Z,22.37
2018-06-05T03:51:53.640Z,20.70
2018-06-05T03:54:21.052Z,20.40
2018-06-05T03:56:48.483Z,19.60
2018-06-05T03:59:15.895Z,19.87
2018-06-05T04:01:43.396Z,19.77
2018-06-05T04:04:10.857Z,18.80
2018-06-05T04:06:38.279Z,20.10
2018-06-05T04:09:06.054Z,18.70
2018-06-05T04:11:33.462Z,21.33
2018-06-05T04:14:00.876Z,21.10
2018-06-05T04:16:28.295Z,20.60
2018-06-05T04:18:55.671Z,19.97
2018-06-05T04:21:23.047Z,19.97
2018-06-05T04:23:50.454Z,21.07
2018-06-05T04:26:17.986Z,21.13
2018-06-05T04:28:45.367Z,20.33
2018-06-05T04:31:12.758Z,18.50
2018-06-05T04:33:40.164Z,18.30
2018-06-05T04:36:08.518Z,19.70
2018-06-05T04:38:35.934Z,21.23
2018-06-05T04:41:03.336Z,21.20
2018-06-05T04:43:30.757Z,20.70
2018-06-05T04:45:58.174Z,21.60
2018-06-05T04:48:25.555Z,20.73
2018-06-05T04:50:52.976Z,21.80
2018-06-05T04:53:20.365Z,22.07
2018-06-05T04:55:47.774Z,20.20
2018-06-05T04:58:15.176Z,20.97
2018-06-05T05:00:42.668Z,19.70
2018-06-05T05:03:10.047Z,20.90
2018-06-05T05:05:37.484Z,19.50
2018-06-05T05:08:05.053Z,20.70
2018-06-05T05:10:32.483Z,18.13
2018-06-05T05:12:59.911Z,19.80
2018-06-05T05:15:27.291Z,19.90
2018-06-05T05:17:54.651Z,19.70
2018-06-05T05:20:22.089Z,18.80
2018-06-05T05:22:49.470Z,21.00
2018-06-05T05:25:16.917Z,19.60
2018-06-05T05:27:44.321Z,22.03
2018-06-05T05:30:11.760Z,22.77
2018-06-05T05:32:39.197Z,21.93
2018-06-05T05:35:06.621Z,21.87
2018-06-05T05:37:34.031Z,22.50
2018-06-05T05:40:01.459Z,21.40
2018-06-05T05:42:28.827Z,23.70
2018-06-05T05:44:56.198Z,22.70
2018-06-05T05:47:23.710Z,24.20
2018-06-05T05:49:51.099Z,22.40
2018-06-05T05:52:18.540Z,22.53
2018-06-05T05:54:45.987Z,23.33
2018-06-05T05:57:13.372Z,23.40
2018-06-05T05:59:40.776Z,21.20
2018-06-05T06:02:08.210Z,23.33
2018-06-05T06:04:35.638Z,22.97
2018-06-05T06:07:03.113Z,21.83
2018-06-05T06:09:30.475Z,23.63
2018-06-05T06:11:57.880Z,23.17
2018-06-05T06:14:25.274Z,22.17
2018-06-05T06:16:52.665Z,23.63
2018-06-05T06:19:20.064Z,21.70
2018-06-05T06:21:47.508Z,23.00
2018-06-05T06:24:14.946Z,23.10
2018-06-05T06:26:42.411Z,22.00
2018-06-05T06:29:09.804Z,23.20
2018-06-05T06:31:37.207Z,22.10
2018-06-05T06:34:04.634Z,21.60
2018-06-05T06:36:32.150Z,20.30
2018-06-05T06:38:59.528Z,22.20
2018-06-05T06:41:26.907Z,22.03
2018-06-05T06:43:54.296Z,21.40
2018-06-05T06:46:21.686Z,22.17
2018-06-05T06:48:49.107Z,20.00
2018-06-05T06:51:16.526Z,20.50
2018-06-05T06:53:43.915Z,21.43
2018-06-05T06:56:11.338Z,21.23
2018-06-05T06:58:38.823Z,22.03
2018-06-05T07:01:06.244Z,22.80
2018-06-05T07:03:33.682Z,21.70
2018-06-05T07:06:01.167Z,21.73
2018-06-05T07:08:28.617Z,21.53
2018-06-05T07:10:56.011Z,22.00
2018-06-05T07:13:23.385Z,21.83
2018-06-05T07:15:50.823Z,21.10
2018-06-05T07:18:18.319Z,22.43
2018-06-05T07:20:45.733Z,21.27
2018-06-05T07:23:13.122Z,23.40
2018-06-05T07:25:40.557Z,19.40
2018-06-05T07:28:07.992Z,21.50
2018-06-05T07:30:35.431Z,22.43
2018-06-05T07:33:03.006Z,23.30
2018-06-05T07:35:30.376Z,22.30
2018-06-05T07:37:57.763Z,22.40
2018-06-05T07:40:25.154Z,22.07
2018-06-05T07:42:52.532Z,19.90
2018-06-05T07:45:19.920Z,21.50
2018-06-05T07:47:47.304Z,19.57
2018-06-05T07:50:14.848Z,19.33
2018-06-05T07:52:42.225Z,19.70
2018-06-05T07:55:09.655Z,19.63
2018-06-05T07:57:37.057Z,18.13
2018-06-05T08:00:04.504Z,17.90
2018-06-05T08:02:31.985Z,17.00
2018-06-05T08:04:59.448Z,18.33
2018-06-05T08:07:26.856Z,17.03
2018-06-05T08:09:54.283Z,17.47
2018-06-05T08:12:21.698Z,17.17
2018-06-05T08:14:49.083Z,17.90
2018-06-05T08:17:16.452Z,16.67
2018-06-05T08:19:43.851Z,16.07
2018-06-05T08:22:11.256Z,15.20
2018-06-05T08:24:39.466Z,15.93
2018-06-05T08:27:06.855Z,16.80
2018-06-05T08:29:34.232Z,17.37
2018-06-05T08:32:01.657Z,17.97
2018-06-05T08:34:29.049Z,17.77
2018-06-05T08:36:56.489Z,19.57
2018-06-05T08:39:23.901Z,18.03
2018-06-05T08:41:51.302Z,20.20
2018-06-05T08:44:18.943Z,19.87
2018-06-05T08:46:46.529Z,20.37
2018-06-05T08:49:13.907Z,19.00
2018-06-05T08:51:41.558Z,19.53
2018-06-05T08:54:08.971Z,18.80
2018-06-05T08:56:36.420Z,18.67
2018-06-05T08:59:03.904Z,18.70
2018-06-05T09:01:31.279Z,17.90
2018-06-05T09:03:58.706Z,18.37
2018-06-05T09:06:26.092Z,18.53
2018-06-05T09:08:53.560Z,19.97
2018-06-05T09:11:20.972Z,19.53
2018-06-05T09:13:48.351Z,17.33
2018-06-05T09:16:15.738Z,17.43
2018-06-05T09:18:43.131Z,16.73
2018-06-05T09:21:10.624Z,16.03
2018-06-05T09:23:38.092Z,19.67
2018-06-05T09:26:05.539Z,17.63
2018-06-05T09:28:32.964Z,17.67
2018-06-05T09:31:00.403Z,17.67
2018-06-05T09:33:27.834Z,16.73
2018-06-05T09:35:55.258Z,19.00
2018-06-05T09:38:22.651Z,18.20
2018-06-05T09:40:50.258Z,19.70
2018-06-05T09:43:17.877Z,19.13
2018-06-05T09:45:45.432Z,18.90
2018-06-05T09:48:12.994Z,18.80
2018-06-05T09:50:44.898Z,19.87
2018-06-05T09:53:12.574Z,18.80
2018-06-05T09:55:40.186Z,20.20
2018-06-05T09:58:07.913Z,20.27
2018-06-05T10:00:40.860Z,18.80
2018-06-05T10:03:08.409Z,17.93
2018-06-05T10:05:35.970Z,16.80
2018-06-05T10:08:03.632Z,17.60
2018-06-05T10:10:31.314Z,17.70
2018-06-05T10:12:58.894Z,19.03
2018-06-05T10:15:26.489Z,18.40
2018-06-05T10:17:54.116Z,17.23
2018-06-05T10:20:21.738Z,19.20
2018-06-05T10:22:49.344Z,18.37
2018-06-05T10:25:16.931Z,18.00
2018-06-05T10:27:44.585Z,18.17
2018-06-05T10:30:12.168Z,17.80
2018-06-05T10:32:39.820Z,16.80
2018-06-05T10:35:07.457Z,18.63
2018-06-05T10:37:35.107Z,16.80
2018-06-05T10:40:02.726Z,17.60
2018-06-05T10:42:30.254Z,15.73
2018-06-05T10:44:57.835Z,17.97
2018-06-05T10:47:25.385Z,18.10
2018-06-05T10:49:52.946Z,17.73
2018-06-05T10:52:20.354Z,16.80
2018-06-05T10:54:47.902Z,17.97
2018-06-05T10:57:15.483Z,16.80
2018-06-05T10:59:43.031Z,17.60
2018-06-05T11:02:10.627Z,20.20
2018-06-05T11:04:38.194Z,16.57
2018-06-05T11:07:05.705Z,17.50
2018-06-05T11:09:33.166Z,17.63
2018-06-05T11:12:00.595Z,16.50
2018-06-05T11:14:27.988Z,17.30
2018-06-05T11:16:55.410Z,15.60
2018-06-05T11:19:22.837Z,17.17
2018-06-05T11:21:50.254Z,17.97
2018-06-05T11:24:17.726Z,15.77
2018-06-05T11:26:45.135Z,16.77
2018-06-05T11:29:12.584Z,17.17
2018-06-05T11:31:40.014Z,16.47
2018-06-05T11:34:07.461Z,19.03
2018-06-05T11:36:34.918Z,15.83
2018-06-05T11:39:02.428Z,16.50
2018-06-05T11:41:29.912Z,17.83
2018-06-05T11:43:57.464Z,18.80
2018-06-05T11:46:24.932Z,16.50
2018-06-05T11:48:52.343Z,15.87
2018-06-05T11:51:19.743Z,15.83
2018-06-05T11:53:47.163Z,15.33
2018-06-05T11:56:14.581Z,16.70
2018-06-05T11:58:41.968Z,18.80
2018-06-05T12:01:09.422Z,18.37
2018-06-05T12:03:36.815Z,19.00
2018-06-05T12:06:04.307Z,18.70
2018-06-05T12:08:31.721Z,19.30
2018-06-05T12:10:59.140Z,17.67
2018-06-05T12:13:26.661Z,18.77
2018-06-05T12:15:54.076Z,18.83
2018-06-05T12:18:21.459Z,18.47
2018-06-05T12:20:48.851Z,19.77
2018-06-05T12:23:16.240Z,18.80
2018-06-05T12:25:43.744Z,17.90
2018-06-05T12:28:11.204Z,17.37
2018-06-05T12:30:38.610Z,17.10
2018-06-05T12:33:06.005Z,18.50
2018-06-05T12:35:33.413Z,16.23
2018-06-05T12:38:00.841Z,19.37
2018-06-05T12:40:28.319Z,19.73
2018-06-05T12:42:55.717Z,18.93
2018-06-05T12:45:23.144Z,20.60
2018-06-05T12:47:50.576Z,18.90
2018-06-05T12:50:18.003Z,19.10
2018-06-05T12:52:45.443Z,18.30
2018-06-05T12:55:12.816Z,16.10
2018-06-05T12:57:40.229Z,19.30
2018-06-05T13:00:07.704Z,16.57
2018-06-05T13:02:35.167Z,16.33
2018-06-05T13:05:02.545Z,20.97
2018-06-05T13:07:29.941Z,20.70
2018-06-05T13:09:57.367Z,19.50
2018-06-05T13:12:24.856Z,18.80
2018-06-05T13:14:52.324Z,20.77
2018-06-05T13:17:19.705Z,18.70
2018-06-05T13:19:47.164Z,20.40
2018-06-05T13:22:14.632Z,19.20
2018-06-05T13:24:42.116Z,19.03
2018-06-05T13:27:09.544Z,22.70
2018-06-05T13:29:37.010Z,19.37
2018-06-05T13:32:04.480Z,22.03
2018-06-05T13:34:31.878Z,22.37
2018-06-05T13:36:59.384Z,21.53
2018-06-05T13:39:26.870Z,19.77
2018-06-05T13:41:54.319Z,21.63
2018-06-05T13:44:21.732Z,18.93
2018-06-05T13:46:49.227Z,19.20
2018-06-05T13:49:16.600Z,18.53
2018-06-05T13:51:44.243Z,21.00
2018-06-05T13:54:14.323Z,21.10
2018-06-05T13:56:42.864Z,19.50
2018-06-05T13:59:10.702Z,19.77
2018-06-05T14:01:41.585Z,20.53
2018-06-05T14:04:13.628Z,20.03
2018-06-05T14:06:44.167Z,19.20
2018-06-05T14:09:15.472Z,19.67
2018-06-05T14:11:46.189Z,20.30
2018-06-05T14:14:17.278Z,19.10
2018-06-05T14:16:45.809Z,18.63
2018-06-05T14:19:15.701Z,18.23
2018-06-05T14:21:45.350Z,19.40
2018-06-05T14:24:14.881Z,17.93
2018-06-05T14:26:45.167Z,19.13
2018-06-05T14:29:14.689Z,19.47
2018-06-05T14:31:44.513Z,17.60
2018-06-05T14:34:14.645Z,18.03
2018-06-05T14:36:44.627Z,18.93
2018-06-05T14:39:13.697Z,16.30
2018-06-05T14:41:43.109Z,18.20
2018-06-05T14:44:13.255Z,16.37
2018-06-05T14:46:41.668Z,19.63
2018-06-05T14:49:11.616Z,17.97
2018-06-05T14:51:41.312Z,18.53
2018-06-05T14:54:12.338Z,17.07
2018-06-05T14:56:43.510Z,18.40
2018-06-05T14:59:11.905Z,18.07
2018-06-05T15:01:43.226Z,16.93
2018-06-05T15:04:12.543Z,17.23
2018-06-05T15:06:40.917Z,17.90
2018-06-05T15:09:11.611Z,18.43
2018-06-05T15:11:41.634Z,18.80
2018-06-05T15:14:11.435Z,18.93
2018-06-05T15:16:40.670Z,18.57
2018-06-05T15:19:10.028Z,20.67
2018-06-05T15:21:39.719Z,18.30
2018-06-05T15:24:09.703Z,18.73
2018-06-05T15:26:40.768Z,17.90
2018-06-05T15:29:11.653Z,15.93
2018-06-05T15:31:40.685Z,17.70
2018-06-05T15:34:12.199Z,15.77
2018-06-05T15:36:42.978Z,15.47
2018-06-05T15:39:13.265Z,16.33
2018-06-05T15:41:43.640Z,17.00
2018-06-05T15:44:13.121Z,17.43
2018-06-05T15:46:44.367Z,14.60
2018-06-05T15:49:14.961Z,15.07
2018-06-05T15:51:44.073Z,14.77
2018-06-05T15:54:13.985Z,16.40
2018-06-05T15:56:42.107Z,17.20
2018-06-05T15:59:14.052Z,15.77
2018-06-05T16:01:44.146Z,16.10
2018-06-05T16:04:15.440Z,17.00
2018-06-05T16:06:45.646Z,15.90
2018-06-05T16:09:14.371Z,16.17
2018-06-05T16:11:43.872Z,16.10
2018-06-05T16:14:11.585Z,14.53
2018-06-05T16:16:39.619Z,15.17
2018-06-05T16:19:08.629Z,15.13
2018-06-05T16:21:37.604Z,13.13
2018-06-05T16:24:07.968Z,15.80
2018-06-05T16:26:36.229Z,16.27
2018-06-05T16:29:04.570Z,15.60
2018-06-05T16:31:32.038Z,14.40
2018-06-05T16:34:00.080Z,15.33
2018-06-05T16:36:28.740Z,15.33
2018-06-05T16:38:56.196Z,15.77
2018-06-05T16:41:24.192Z,14.00
2018-06-05T16:43:52.535Z,14.63
2018-06-05T16:46:20.362Z,15.67
2018-06-05T16:48:48.517Z,14.20
2018-06-05T16:51:16.457Z,12.57
2018-06-05T16:53:43.885Z,13.70
2018-06-05T16:56:11.388Z,11.37
2018-06-05T16:58:39.510Z,10.67
2018-06-05T17:01:07.247Z,10.70
2018-06-05T17:03:35.709Z,10.83
2018-06-05T17:06:03.129Z,10.20
2018-06-05T17:08:30.564Z,10.87
2018-06-05T17:10:57.975Z,11.07
2018-06-05T17:13:25.373Z,9.50
2018-06-05T17:15:52.831Z,10.70
2018-06-05T17:18:20.211Z,11.00
2018-06-05T17:20:47.594Z,10.57
2018-06-05T17:23:15.068Z,9.67
2018-06-05T17:25:42.462Z,8.47
2018-06-05T17:28:09.833Z,8.23
2018-06-05T17:30:37.222Z,8.53
2018-06-05T17:33:04.752Z,9.60
2018-06-05T17:35:32.128Z,9.73
2018-06-05T17:37:59.687Z,12.50
2018-06-05T17:40:27.073Z,14.60
2018-06-05T17:42:54.466Z,15.27
2018-06-05T17:45:21.898Z,14.57
2018-06-05T17:47:49.338Z,14.20
2018-06-05T17:50:16.743Z,14.03
2018-06-05T17:52:44.129Z,15.13
2018-06-05T17:55:11.574Z,14.10
2018-06-05T17:57:39.095Z,15.23
2018-06-05T18:00:06.471Z,15.23
2018-06-05T18:02:33.923Z,15.87
2018-06-05T18:05:01.307Z,16.20
2018-06-05T18:07:28.908Z,16.03
2018-06-05T18:09:56.683Z,14.70
2018-06-05T18:12:24.166Z,17.60
2018-06-05T18:14:51.602Z,15.40
2018-06-05T18:17:19.548Z,16.43
2018-06-05T18:19:47.076Z,16.43
2018-06-05T18:22:14.711Z,17.10
2018-06-05T18:24:42.411Z,16.07
2018-06-05T18:27:10.077Z,16.93
2018-06-05T18:29:37.701Z,16.17
2018-06-05T18:32:05.319Z,16.23
2018-06-05T18:34:39.444Z,16.20
2018-06-05T18:37:06.886Z,16.10
2018-06-05T18:39:34.301Z,15.80
2018-06-05T18:42:02.183Z,16.87
2018-06-05T18:44:29.612Z,16.70
2018-06-05T18:46:57.006Z,16.83
2018-06-05T18:49:24.543Z,17.00
2018-06-05T18:51:51.999Z,16.67
2018-06-05T18:54:20.987Z,17.03
2018-06-05T18:56:48.686Z,18.17
2018-06-05T18:59:16.150Z,17.57
2018-06-05T19:01:43.758Z,18.10
2018-06-05T19:04:11.314Z,17.90
2018-06-05T19:06:38.764Z,19.03
2018-06-05T19:09:13.017Z,19.27
2018-06-05T19:11:40.551Z,18.53
2018-06-05T19:14:07.967Z,19.10
2018-06-05T19:16:35.473Z,20.50
2018-06-05T19:19:02.988Z,22.10
2018-06-05T19:21:30.508Z,21.37
2018-06-05T19:23:57.906Z,19.20
2018-06-05T19:26:25.319Z,19.70
2018-06-05T19:28:52.921Z,20.77
2018-06-05T19:31:21.076Z,19.80
2018-06-05T19:33:48.511Z,19.30
2018-06-05T19:36:16.489Z,20.73
2018-06-05T19:38:44.063Z,19.50
2018-06-05T19:41:14.203Z,19.63
2018-06-05T19:43:41.952Z,21.60
2018-06-05T19:46:09.624Z,21.23
2018-06-05T19:48:37.311Z,21.00
2018-06-05T19:51:04.838Z,22.10
2018-06-05T19:53:32.503Z,21.90
2018-06-05T19:55:59.983Z,20.93
2018-06-05T19:58:27.359Z,21.23
2018-06-05T20:00:54.782Z,22.20
2018-06-05T20:03:22.200Z,22.40
2018-06-05T20:05:49.655Z,24.37
2018-06-05T20:08:17.055Z,22.13
2018-06-05T20:10:44.580Z,22.80
2018-06-05T20:13:12.016Z,22.13
2018-06-05T20:15:39.551Z,23.27
2018-06-05T20:18:06.992Z,21.27
2018-06-05T20:20:34.414Z,22.70
2018-06-05T20:23:01.830Z,21.53
2018-06-05T20:25:29.271Z,21.80
2018-06-05T20:27:56.820Z,22.20
2018-06-05T20:30:24.346Z,21.67
2018-06-05T20:32:51.978Z,23.80
2018-06-05T20:35:19.786Z,23.67
2018-06-05T20:37:47.248Z,24.73
2018-06-05T20:40:14.697Z,23.37
2018-06-05T20:42:42.386Z,22.60
2018-06-05T20:45:09.987Z,24.10
2018-06-05T20:47:37.429Z,23.83
2018-06-05T20:50:04.926Z,25.00
2018-06-05T20:52:32.928Z,24.17
2018-06-05T20:55:00.326Z,22.70
2018-06-05T20:57:27.744Z,24.17
2018-06-05T20:59:55.120Z,23.40
2018-06-05T21:02:22.644Z,23.03
2018-06-05T21:04:51.219Z,23.10
2018-06-05T21:07:18.598Z,23.83
2018-06-05T21:09:46.102Z,23.10
2018-06-05T21:12:14.158Z,25.47
2018-06-05T21:14:41.601Z,23.67
2018-06-05T21:17:09.012Z,24.67
2018-06-05T21:19:36.392Z,23.80
2018-06-05T21:22:03.832Z,26.20
2018-06-05T21:24:31.279Z,25.37
2018-06-05T21:26:58.635Z,22.90
2018-06-05T21:29:26.025Z,24.40
2018-06-05T21:31:53.796Z,25.00
2018-06-05T21:34:21.224Z,24.40
2018-06-05T21:36:49.636Z,23.67
2018-06-05T21:39:17.233Z,23.37
2018-06-05T21:41:44.643Z,22.73
2018-06-05T21:44:12.099Z,23.97
2018-06-05T21:46:39.502Z,25.67
2018-06-05T21:49:06.881Z,24.67
2018-06-05T21:51:34.297Z,24.87
2018-06-05T21:54:01.713Z,24.93
2018-06-05T21:56:29.131Z,24.10
2018-06-05T21:58:56.556Z,24.23
2018-06-05T22:01:23.925Z,25.13
2018-06-05T22:03:51.280Z,24.80
2018-06-05T22:06:19.091Z,23.80
2018-06-05T22:08:46.518Z,25.17
2018-06-05T22:11:13.922Z,24.50
2018-06-05T22:13:41.379Z,23.07
2018-06-05T22:16:08.808Z,24.10
2018-06-05T22:18:36.233Z,23.53
2018-06-05T22:21:03.672Z,23.13
2018-06-05T22:23:31.040Z,22.30
2018-06-05T22:25:58.466Z,21.80
2018-06-05T22:28:25.861Z,22.97
2018-06-05T22:30:53.250Z,25.00
2018-06-05T22:33:20.672Z,23.70
2018-06-05T22:35:48.122Z,25.07
2018-06-05T22:38:15.522Z,24.53
2018-06-05T22:40:42.906Z,24.70
2018-06-05T22:43:10.920Z,23.77
2018-06-05T22:45:38.334Z,23.97
2018-06-05T22:48:05.711Z,23.50
2018-06-05T22:50:33.118Z,24.57
2018-06-05T22:53:00.510Z,24.33
2018-06-05T22:55:27.886Z,25.67
2018-06-05T22:57:55.311Z,22.33
2018-06-05T23:00:23.496Z,22.77
2018-06-05T23:02:50.913Z,24.63
2018-06-05T23:05:18.400Z,24.57
2018-06-05T23:07:46.219Z,25.10
2018-06-05T23:10:13.627Z,25.53
2018-06-05T23:12:41.064Z,26.43
2018-06-05T23:15:08.533Z,24.00
2018-06-05T23:17:35.947Z,22.70
2018-06-05T23:20:03.597Z,24.27
2018-06-05T23:22:31.066Z,23.73
2018-06-05T23:25:01.165Z,24.25
2018-06-05T23:27:28.591Z,22.80
2018-06-05T23:29:56.011Z,25.08
2018-06-05T23:32:23.409Z,23.02
2018-06-05T23:34:51.283Z,23.25
2018-06-05T23:37:18.730Z,24.57
2018-06-05T23:39:46.801Z,22.25
2018-06-05T23:42:14.307Z,22.82
2018-06-05T23:44:41.707Z,22.50
2018-06-05T23:47:09.175Z,23.60
2018-06-05T23:49:36.608Z,22.45
2018-06-05T23:52:04.024Z,22.20
2018-06-05T23:54:35.781Z,20.70
2018-06-05T23:57:03.223Z,22.03
2018-06-05T23:59:30.600Z,21.93
